Airfield :
LOGIN :

Register | Disclaimer

   EN    FR    IT 

 










Legend :    VFR   Marginal VFR   IFR   Intensive IFR   Very Intensive IFR
Visi :
Ceiling :
>= 8 km
>= 3000ft
5 to 8 km
1000 to 3000 ft
1500m to 5 km
500 to 1000 ft
800 to 1500m
200 to 500 ft
< 800m
< 200 ft
Symbols :   Thunderstorms  Fog  Heavy snow  Heavy precipitations  Wind > 20 kt
SIGMETs :     Misc.  Thunderstorms  Icing  Turbulence  Mountain Waves  Volcanic Ashes






- Airport Elevation : 1487 ft
- IATA code : MUC


EDDM - München Franz Josef Strauss

CURRENT METAR :
  • 101050Z 28010KT 230V320 CAVOK 15/01 Q1015 NOSIG

EXPIRED METARs :
  • 101020Z 25010KT 220V290 CAVOK 15/02 Q1016 NOSIG
  • 100950Z 27011KT 240V310 CAVOK 14/01 Q1016 NOSIG
  • 100920Z 26012KT CAVOK 14/01 Q1016 NOSIG
  • 100850Z 26009KT CAVOK 14/01 Q1016 NOSIG

TAF TAF EDDM
Valid from the 10 at 06:00 until the 11 at 12:00 UTC


100500Z 1006/1112 23003KT CAVOK
BECMG 1008/1010 26008KT
BECMG 1015/1017 09005KT



MET'MAP, your aeronautical weather chart ! - Copyright ORBIFLY December 2007 - Disclaimer

ORBIFLY MET'MAP TEAM :

Programming & Development : Alexandra Zaïnal
Concept & original design : Baudouin d'Aumeries
Assistance for programming : Marc-Olivier Méhu
Technical & hardware support : Manuel Goepfert

Contact : metmap@orbifly.com




SOURCES & CREDITS :

   NOAA